Hlavní strana
METAR-TAF:

METAR-TAF

Letiště :

Skellefteå, Švédsko

zeměpisná šířka: 64-38N, zeměpisná délka: 021-05E, výška: 49 m

Aktuální stav počasí

Zpráva byla vytvořena před 22 minutami, v 04:50 UTC
Západní vítr 7 kt
Teplota 8°C
Vlhkost vzduchu 76%
Tlak 1014 hPa
Viditelnost 10 km a více
Žádná oblačnost pod 1500 m, nevyskytují se cumulonimby.

METAR: ESNS 220450Z 26007KT CAVOK 08/04 Q1014

Čas: 07:12 (05:12 UTC)

Předpověď počasí

Zpráva byla vytvořena před 42 minutami, v 04:30 UTC
Předpověď platná od 22 v 05 UTC do 22 v 12 UTC
Západojihozápadní vítr 5 kt
Viditelnost 10 km a více
Žádná oblačnost pod 1500 m, nevyskytují se cumulonimby.

TAF: ESNS 220430Z 2205/2212 24005KT CAVOK

Stav a předpovědi počasí z více než 4 000 letišť (zprávy METAR a TAF).

Červené a žluté tečky na mapě představují dostupné meteorologické stanice.

Když kurzor umístíte na tečku, zobrazí se název stanice.

Pak kliknutím zobrazíte stav a předpověď počasí.

Chcete-li změnit mapu, kliknutím na zelené tlačítko se znaménkem +mapu přiblížíte, kliknutím na zelené tlačítko se znaménkem – mapu oddálíte a kliknutím na zelené šipky přejdete na sousední mapy.


METAR-TAF: